createdAt,value
2023-04-16T00:03:40.244Z,8.46
2023-04-16T00:08:44.719Z,8.43
2023-04-16T00:13:50.311Z,8.38
2023-04-16T00:18:54.341Z,8.30
2023-04-16T00:23:58.357Z,8.40
2023-04-16T00:29:03.924Z,8.31
2023-04-16T00:34:07.874Z,8.28
2023-04-16T00:39:11.797Z,8.21
2023-04-16T00:44:17.079Z,8.22
2023-04-16T00:49:21.254Z,8.23
2023-04-16T00:54:26.502Z,8.38
2023-04-16T00:59:33.803Z,8.31
2023-04-16T01:04:37.967Z,8.28
2023-04-16T01:09:41.960Z,8.32
2023-04-16T01:14:48.805Z,8.17
2023-04-16T01:19:52.792Z,8.02
2023-04-16T01:24:58.197Z,7.91
2023-04-16T01:30:02.202Z,7.85
2023-04-16T01:35:18.700Z,7.83
2023-04-16T01:40:24.021Z,7.97
2023-04-16T01:45:32.815Z,8.02
2023-04-16T01:50:36.982Z,7.99
2023-04-16T01:55:42.307Z,7.86
2023-04-16T02:00:46.326Z,7.90
2023-04-16T02:05:50.562Z,7.83
2023-04-16T02:10:58.000Z,7.82
2023-04-16T02:16:03.689Z,7.95
2023-04-16T02:21:22.195Z,8.01
2023-04-16T02:26:29.326Z,8.12
2023-04-16T02:31:37.262Z,8.10
2023-04-16T02:36:42.214Z,7.90
2023-04-16T02:41:48.280Z,8.05
2023-04-16T02:46:52.272Z,8.12
2023-04-16T02:51:56.353Z,7.93
2023-04-16T02:57:02.600Z,7.88
2023-04-16T03:02:06.648Z,7.71
2023-04-16T03:07:13.012Z,7.52
2023-04-16T03:12:18.452Z,7.74
2023-04-16T03:17:22.419Z,7.92
2023-04-16T03:22:26.415Z,7.99
2023-04-16T03:27:31.790Z,7.82
2023-04-16T03:32:36.218Z,7.60
2023-04-16T03:37:43.942Z,7.78
2023-04-16T03:42:49.324Z,7.60
2023-04-16T03:47:53.786Z,7.53
2023-04-16T03:53:00.559Z,7.73
2023-04-16T03:58:06.427Z,7.61
2023-04-16T04:03:11.130Z,7.76
2023-04-16T04:08:16.057Z,7.95
2023-04-16T04:13:21.577Z,7.98
2023-04-16T04:18:33.037Z,8.07
2023-04-16T04:23:41.030Z,7.97
2023-04-16T04:28:47.170Z,7.96
2023-04-16T04:33:55.694Z,8.19
2023-04-16T04:38:59.831Z,8.18
2023-04-16T04:44:07.653Z,8.35
2023-04-16T04:49:13.113Z,8.41
2023-04-16T04:54:18.999Z,8.35
2023-04-16T04:59:25.160Z,8.35
2023-04-16T05:04:29.798Z,8.32
2023-04-16T05:09:37.061Z,8.43
2023-04-16T05:14:42.305Z,8.58
2023-04-16T05:19:48.225Z,8.61
2023-04-16T05:24:52.134Z,8.55
2023-04-16T05:29:57.454Z,8.68
2023-04-16T05:35:01.411Z,8.86
2023-04-16T05:40:05.990Z,8.89
2023-04-16T05:45:12.177Z,9.08
2023-04-16T05:50:16.202Z,9.36
2023-04-16T05:55:21.022Z,9.31
2023-04-16T06:00:31.491Z,9.76
2023-04-16T06:05:35.943Z,10.03
2023-04-16T06:10:40.361Z,10.16
2023-04-16T06:15:45.719Z,11.06
2023-04-16T06:20:49.679Z,11.71
2023-04-16T06:25:53.630Z,12.19
2023-04-16T06:31:02.511Z,12.62
2023-04-16T06:36:06.840Z,12.37
2023-04-16T06:41:11.023Z,12.63
2023-04-16T06:46:16.367Z,12.99
2023-04-16T06:51:20.727Z,13.06
2023-04-16T06:56:24.665Z,13.23
2023-04-16T07:01:31.292Z,13.47
2023-04-16T07:06:35.302Z,13.52
2023-04-16T07:11:39.545Z,13.24
2023-04-16T07:16:46.276Z,13.14
2023-04-16T07:21:50.516Z,12.74
2023-04-16T07:26:54.485Z,12.81
2023-04-16T07:32:00.071Z,12.84
2023-04-16T07:37:04.207Z,14.21
2023-04-16T07:42:10.041Z,14.70
2023-04-16T07:47:17.254Z,15.23
2023-04-16T07:52:21.220Z,15.45
2023-04-16T07:57:25.138Z,15.71
2023-04-16T08:02:30.578Z,16.07
2023-04-16T08:07:34.905Z,15.97
2023-04-16T08:12:39.037Z,15.84
2023-04-16T08:17:44.306Z,16.48
2023-04-16T08:22:50.435Z,16.81
2023-04-16T08:27:54.284Z,17.20
2023-04-16T08:32:59.636Z,17.24
2023-04-16T08:38:04.859Z,16.96
2023-04-16T08:43:12.460Z,15.61
2023-04-16T08:48:20.710Z,16.21
2023-04-16T08:53:31.143Z,16.25
2023-04-16T08:58:35.817Z,16.89
2023-04-16T09:03:42.391Z,17.35
2023-04-16T09:08:46.723Z,17.71
2023-04-16T09:13:52.392Z,18.77
2023-04-16T09:18:57.700Z,19.02
2023-04-16T09:24:02.875Z,18.37
2023-04-16T09:29:06.889Z,18.55
2023-04-16T09:34:12.247Z,20.15
2023-04-16T09:39:20.634Z,20.86
2023-04-16T09:44:36.909Z,21.46
2023-04-16T09:49:44.370Z,20.62
2023-04-16T09:54:49.793Z,19.83
2023-04-16T09:59:57.294Z,18.41
2023-04-16T10:05:03.841Z,16.94
2023-04-16T10:10:09.550Z,15.98
2023-04-16T10:15:14.311Z,16.70
2023-04-16T10:20:20.781Z,16.20
2023-04-16T10:25:25.075Z,17.65
2023-04-16T10:30:29.257Z,19.06
2023-04-16T10:35:34.541Z,19.24
2023-04-16T10:40:38.484Z,19.12
2023-04-16T10:45:42.346Z,19.49
2023-04-16T10:50:57.134Z,18.47
2023-04-16T10:56:15.738Z,18.39
2023-04-16T11:01:19.985Z,19.25
2023-04-16T11:06:28.194Z,19.40
2023-04-16T11:11:39.724Z,20.17
2023-04-16T11:16:43.640Z,19.34
2023-04-16T11:21:49.064Z,18.17
2023-04-16T11:26:53.147Z,18.63
2023-04-16T11:31:57.116Z,17.71
2023-04-16T11:37:02.472Z,17.27
2023-04-16T11:42:06.564Z,16.91
2023-04-16T11:47:13.846Z,16.86
2023-04-16T11:52:28.567Z,16.10
2023-04-16T11:57:33.637Z,15.82
2023-04-16T12:02:39.348Z,15.69
2023-04-16T12:07:47.774Z,15.55
2023-04-16T12:12:51.944Z,15.65
2023-04-16T12:18:08.355Z,15.73
2023-04-16T12:23:24.502Z,17.30
2023-04-16T12:28:33.081Z,17.89
2023-04-16T12:33:37.098Z,16.92
2023-04-16T12:38:42.411Z,16.83
2023-04-16T12:43:46.545Z,16.66
2023-04-16T12:48:50.769Z,16.61
2023-04-16T12:53:56.382Z,16.46
2023-04-16T12:59:00.414Z,16.58
2023-04-16T13:04:04.507Z,16.18
2023-04-16T13:09:10.465Z,16.29
2023-04-16T13:14:14.636Z,16.45
2023-04-16T13:19:19.277Z,16.48
2023-04-16T13:24:24.728Z,16.03
2023-04-16T13:29:28.759Z,15.78
2023-04-16T13:34:32.688Z,15.04
2023-04-16T13:39:37.982Z,14.66
2023-04-16T13:44:42.013Z,13.64
2023-04-16T13:49:45.979Z,13.11
2023-04-16T13:54:51.332Z,12.59
2023-04-16T14:00:01.665Z,12.04
2023-04-16T14:05:06.958Z,11.98
2023-04-16T14:10:13.106Z,11.79
2023-04-16T14:15:17.183Z,12.08
2023-04-16T14:20:21.382Z,12.38
2023-04-16T14:25:27.138Z,12.42
2023-04-16T14:30:32.305Z,13.02
2023-04-16T14:35:36.180Z,12.54
2023-04-16T14:40:41.495Z,12.64
2023-04-16T14:45:46.291Z,12.54
2023-04-16T14:50:50.673Z,12.40
2023-04-16T14:55:58.199Z,12.40
2023-04-16T15:01:02.187Z,12.35
2023-04-16T15:06:06.368Z,12.24
2023-04-16T15:11:11.677Z,12.37
2023-04-16T15:16:15.683Z,11.91
2023-04-16T15:21:19.667Z,11.60
2023-04-16T15:26:25.002Z,11.48
2023-04-16T15:31:29.098Z,11.27
2023-04-16T15:36:33.303Z,11.19
2023-04-16T15:41:50.212Z,11.03
2023-04-16T15:47:03.417Z,11.00
2023-04-16T15:52:07.485Z,10.78
2023-04-16T15:57:12.728Z,10.51
2023-04-16T16:02:16.630Z,10.12
2023-04-16T16:07:26.809Z,9.56
2023-04-16T16:12:38.350Z,9.30
2023-04-16T16:17:42.369Z,9.05
2023-04-16T16:22:47.682Z,8.94
2023-04-16T16:27:58.892Z,8.75
2023-04-16T16:33:02.926Z,8.66
2023-04-16T16:38:09.278Z,8.54
2023-04-16T16:43:14.863Z,8.38
2023-04-16T16:48:20.343Z,8.27
2023-04-16T16:53:29.494Z,8.18
2023-04-16T16:58:35.115Z,8.08
2023-04-16T17:03:39.130Z,7.99
2023-04-16T17:08:43.206Z,7.96
2023-04-16T17:13:49.898Z,7.96
2023-04-16T17:18:53.827Z,7.88
2023-04-16T17:23:58.226Z,7.83
2023-04-16T17:29:04.506Z,7.77
2023-04-16T17:34:08.476Z,7.60
2023-04-16T17:39:12.563Z,7.55
2023-04-16T17:44:17.856Z,7.49
2023-04-16T17:49:24.930Z,7.37
2023-04-16T17:54:28.832Z,7.24
2023-04-16T17:59:34.674Z,7.33
2023-04-16T18:04:39.900Z,7.32
2023-04-16T18:09:43.864Z,7.36
2023-04-16T18:14:49.204Z,7.28
2023-04-16T18:19:53.470Z,7.46
2023-04-16T18:24:58.101Z,7.68
2023-04-16T18:30:04.649Z,7.72
2023-04-16T18:35:10.384Z,7.70
2023-04-16T18:40:15.368Z,7.83
2023-04-16T18:45:21.763Z,7.97
2023-04-16T18:50:26.297Z,8.25
2023-04-16T18:55:31.114Z,8.24
2023-04-16T19:00:36.432Z,8.31
2023-04-16T19:05:40.375Z,8.46
2023-04-16T19:10:44.259Z,8.51
2023-04-16T19:15:49.669Z,8.64
2023-04-16T19:21:00.540Z,8.84
2023-04-16T19:26:04.507Z,8.91
2023-04-16T19:31:10.155Z,8.93
2023-04-16T19:36:17.039Z,8.92
2023-04-16T19:41:20.907Z,9.02
2023-04-16T19:46:28.050Z,9.04
2023-04-16T19:51:32.526Z,9.17
2023-04-16T19:56:36.636Z,9.08
2023-04-16T20:01:41.963Z,9.12
2023-04-16T20:06:46.149Z,9.28
2023-04-16T20:11:50.124Z,9.25
2023-04-16T20:16:55.593Z,9.34
2023-04-16T20:21:59.530Z,9.29
2023-04-16T20:27:03.506Z,9.33
2023-04-16T20:32:08.952Z,9.22
2023-04-16T20:37:12.887Z,9.38
2023-04-16T20:42:16.921Z,9.43
2023-04-16T20:47:22.622Z,9.35
2023-04-16T20:52:26.523Z,9.37
2023-04-16T20:57:35.150Z,9.46
2023-04-16T21:02:40.834Z,9.46
2023-04-16T21:07:44.928Z,9.52
2023-04-16T21:12:48.914Z,9.60
2023-04-16T21:17:54.308Z,9.65
2023-04-16T21:22:58.732Z,9.68
2023-04-16T21:28:02.719Z,9.60
2023-04-16T21:33:07.997Z,9.63
2023-04-16T21:38:11.953Z,9.62
2023-04-16T21:43:15.910Z,9.55
2023-04-16T21:48:21.584Z,9.57
2023-04-16T21:53:26.196Z,9.54
2023-04-16T21:58:30.258Z,9.45
2023-04-16T22:03:40.038Z,9.45
2023-04-16T22:08:44.391Z,9.51
2023-04-16T22:13:49.532Z,9.47
2023-04-16T22:18:56.683Z,9.34
2023-04-16T22:24:00.872Z,9.31
2023-04-16T22:29:04.879Z,9.21
2023-04-16T22:34:10.142Z,9.32
2023-04-16T22:39:14.296Z,9.17
2023-04-16T22:44:18.272Z,9.27
2023-04-16T22:49:23.515Z,9.22
2023-04-16T22:54:29.480Z,9.40
2023-04-16T22:59:33.381Z,9.40
2023-04-16T23:04:38.678Z,9.29
2023-04-16T23:09:42.601Z,9.23
2023-04-16T23:14:46.934Z,9.37
2023-04-16T23:19:52.292Z,9.41
2023-04-16T23:24:56.379Z,9.31
2023-04-16T23:30:00.356Z,8.99
2023-04-16T23:35:06.278Z,9.00
2023-04-16T23:40:11.511Z,8.90
2023-04-16T23:45:15.465Z,8.85
2023-04-16T23:50:20.928Z,8.57
2023-04-16T23:55:26.342Z,8.50
